sensor_id;sensor_type;location;lat;lon;timestamp;temperature;humidity
3528;DHT22;1778;47.966;7.854;2023-08-24T00:00:32;20.90;99.90
3528;DHT22;1778;47.966;7.854;2023-08-24T00:01:34;20.80;99.90
3528;DHT22;1778;47.966;7.854;2023-08-24T00:02:36;20.80;99.90
3528;DHT22;1778;47.966;7.854;2023-08-24T00:03:40;20.90;99.90
3528;DHT22;1778;47.966;7.854;2023-08-24T00:04:41;20.90;99.90
3528;DHT22;1778;47.966;7.854;2023-08-24T00:05:43;20.90;99.90
3528;DHT22;1778;47.966;7.854;2023-08-24T00:06:45;20.90;99.90
3528;DHT22;1778;47.966;7.854;2023-08-24T00:07:46;20.90;99.90
3528;DHT22;1778;47.966;7.854;2023-08-24T00:08:50;20.90;99.90
3528;DHT22;1778;47.966;7.854;2023-08-24T00:09:53;20.90;99.90
3528;DHT22;1778;47.966;7.854;2023-08-24T00:10:54;20.90;99.90
3528;DHT22;1778;47.966;7.854;2023-08-24T00:11:56;20.80;99.90
3528;DHT22;1778;47.966;7.854;2023-08-24T00:12:58;20.80;99.90
3528;DHT22;1778;47.966;7.854;2023-08-24T00:13:59;20.80;99.90
3528;DHT22;1778;47.966;7.854;2023-08-24T00:15:01;20.80;99.90
3528;DHT22;1778;47.966;7.854;2023-08-24T00:16:04;20.80;99.90
3528;DHT22;1778;47.966;7.854;2023-08-24T00:17:05;20.80;99.90
3528;DHT22;1778;47.966;7.854;2023-08-24T00:18:07;20.70;99.90
3528;DHT22;1778;47.966;7.854;2023-08-24T00:19:08;20.70;99.90
3528;DHT22;1778;47.966;7.854;2023-08-24T00:20:10;20.70;99.90
3528;DHT22;1778;47.966;7.854;2023-08-24T00:21:15;20.70;99.90
3528;DHT22;1778;47.966;7.854;2023-08-24T00:22:24;20.70;99.90
3528;DHT22;1778;47.966;7.854;2023-08-24T00:23:25;20.60;99.90
3528;DHT22;1778;47.966;7.854;2023-08-24T00:24:27;20.80;99.90
3528;DHT22;1778;47.966;7.854;2023-08-24T00:25:29;20.70;99.90
3528;DHT22;1778;47.966;7.854;2023-08-24T00:26:31;20.70;99.90
3528;DHT22;1778;47.966;7.854;2023-08-24T00:27:33;20.70;99.90
3528;DHT22;1778;47.966;7.854;2023-08-24T00:28:34;20.70;99.90
3528;DHT22;1778;47.966;7.854;2023-08-24T00:29:36;20.70;99.90
3528;DHT22;1778;47.966;7.854;2023-08-24T00:30:37;20.60;99.90
3528;DHT22;1778;47.966;7.854;2023-08-24T00:31:39;20.60;99.90
3528;DHT22;1778;47.966;7.854;2023-08-24T00:32:41;20.60;99.90
3528;DHT22;1778;47.966;7.854;2023-08-24T00:33:42;20.60;99.90
3528;DHT22;1778;47.966;7.854;2023-08-24T00:34:44;20.60;99.90
3528;DHT22;1778;47.966;7.854;2023-08-24T00:35:45;20.60;99.90
3528;DHT22;1778;47.966;7.854;2023-08-24T00:36:47;20.60;99.90
3528;DHT22;1778;47.966;7.854;2023-08-24T00:37:49;20.60;99.90
3528;DHT22;1778;47.966;7.854;2023-08-24T00:38:52;20.60;99.90
3528;DHT22;1778;47.966;7.854;2023-08-24T00:39:54;20.60;99.90
3528;DHT22;1778;47.966;7.854;2023-08-24T00:40:57;20.50;99.90
3528;DHT22;1778;47.966;7.854;2023-08-24T00:42:00;20.50;99.90
3528;DHT22;1778;47.966;7.854;2023-08-24T00:43:01;20.60;99.90
3528;DHT22;1778;47.966;7.854;2023-08-24T00:44:03;20.60;99.90
3528;DHT22;1778;47.966;7.854;2023-08-24T00:45:06;20.60;99.90
3528;DHT22;1778;47.966;7.854;2023-08-24T00:46:08;20.60;99.90
3528;DHT22;1778;47.966;7.854;2023-08-24T00:47:10;20.60;99.90
3528;DHT22;1778;47.966;7.854;2023-08-24T00:48:11;20.60;99.90
3528;DHT22;1778;47.966;7.854;2023-08-24T00:49:13;20.60;99.90
3528;DHT22;1778;47.966;7.854;2023-08-24T00:50:17;20.60;99.90
3528;DHT22;1778;47.966;7.854;2023-08-24T00:51:19;20.60;99.90
3528;DHT22;1778;47.966;7.854;2023-08-24T00:52:21;20.50;99.90
3528;DHT22;1778;47.966;7.854;2023-08-24T00:53:24;20.60;99.90
3528;DHT22;1778;47.966;7.854;2023-08-24T00:54:27;20.60;99.90
3528;DHT22;1778;47.966;7.854;2023-08-24T00:55:28;20.50;99.90
3528;DHT22;1778;47.966;7.854;2023-08-24T00:56:30;20.60;99.90
3528;DHT22;1778;47.966;7.854;2023-08-24T00:57:32;20.60;99.90
3528;DHT22;1778;47.966;7.854;2023-08-24T00:58:34;20.60;99.90
3528;DHT22;1778;47.966;7.854;2023-08-24T00:59:36;20.60;99.90
3528;DHT22;1778;47.966;7.854;2023-08-24T01:00:49;20.60;99.90
3528;DHT22;1778;47.966;7.854;2023-08-24T01:01:52;20.50;99.90
3528;DHT22;1778;47.966;7.854;2023-08-24T01:02:54;20.50;99.90
3528;DHT22;1778;47.966;7.854;2023-08-24T01:03:56;20.50;99.90
3528;DHT22;1778;47.966;7.854;2023-08-24T01:04:58;20.40;99.90
3528;DHT22;1778;47.966;7.854;2023-08-24T01:06:00;20.50;99.90
3528;DHT22;1778;47.966;7.854;2023-08-24T01:07:02;20.40;99.90
3528;DHT22;1778;47.966;7.854;2023-08-24T01:08:04;20.40;99.90
3528;DHT22;1778;47.966;7.854;2023-08-24T01:09:06;20.40;99.90
3528;DHT22;1778;47.966;7.854;2023-08-24T01:10:10;20.40;99.90
3528;DHT22;1778;47.966;7.854;2023-08-24T01:11:42;20.40;99.90
3528;DHT22;1778;47.966;7.854;2023-08-24T01:14:08;20.30;99.90
3528;DHT22;1778;47.966;7.854;2023-08-24T01:15:21;20.30;99.90
3528;DHT22;1778;47.966;7.854;2023-08-24T01:16:29;20.30;99.90
3528;DHT22;1778;47.966;7.854;2023-08-24T01:17:35;20.30;99.90
3528;DHT22;1778;47.966;7.854;2023-08-24T01:18:41;20.30;99.90
3528;DHT22;1778;47.966;7.854;2023-08-24T01:19:45;20.30;99.90
3528;DHT22;1778;47.966;7.854;2023-08-24T01:20:48;20.30;99.90
3528;DHT22;1778;47.966;7.854;2023-08-24T01:21:51;20.40;99.90
3528;DHT22;1778;47.966;7.854;2023-08-24T01:23:27;20.40;99.90
3528;DHT22;1778;47.966;7.854;2023-08-24T01:24:40;20.40;99.90
3528;DHT22;1778;47.966;7.854;2023-08-24T01:25:51;20.40;99.90
3528;DHT22;1778;47.966;7.854;2023-08-24T01:26:54;20.40;99.90
3528;DHT22;1778;47.966;7.854;2023-08-24T01:27:57;20.40;99.90
3528;DHT22;1778;47.966;7.854;2023-08-24T01:28:59;20.40;99.90
3528;DHT22;1778;47.966;7.854;2023-08-24T01:30:05;20.40;99.90
3528;DHT22;1778;47.966;7.854;2023-08-24T01:31:07;20.40;99.90
3528;DHT22;1778;47.966;7.854;2023-08-24T01:32:10;20.40;99.90
3528;DHT22;1778;47.966;7.854;2023-08-24T01:33:13;20.40;99.90
3528;DHT22;1778;47.966;7.854;2023-08-24T01:34:15;20.40;99.90
3528;DHT22;1778;47.966;7.854;2023-08-24T01:35:17;20.40;99.90
3528;DHT22;1778;47.966;7.854;2023-08-24T01:36:19;20.50;99.90
3528;DHT22;1778;47.966;7.854;2023-08-24T01:37:21;20.50;99.90
3528;DHT22;1778;47.966;7.854;2023-08-24T01:38:22;20.50;99.90
3528;DHT22;1778;47.966;7.854;2023-08-24T01:39:30;20.40;99.90
3528;DHT22;1778;47.966;7.854;2023-08-24T01:42:05;20.40;99.90
3528;DHT22;1778;47.966;7.854;2023-08-24T01:43:11;20.50;99.90
3528;DHT22;1778;47.966;7.854;2023-08-24T01:44:15;20.50;99.90
3528;DHT22;1778;47.966;7.854;2023-08-24T01:45:20;20.40;99.90
3528;DHT22;1778;47.966;7.854;2023-08-24T01:46:24;20.40;99.90
3528;DHT22;1778;47.966;7.854;2023-08-24T01:47:27;20.40;99.90
3528;DHT22;1778;47.966;7.854;2023-08-24T01:48:30;20.50;99.90
3528;DHT22;1778;47.966;7.854;2023-08-24T01:49:34;20.50;99.90
3528;DHT22;1778;47.966;7.854;2023-08-24T01:50:36;20.40;99.90
3528;DHT22;1778;47.966;7.854;2023-08-24T01:51:39;20.50;99.90
3528;DHT22;1778;47.966;7.854;2023-08-24T01:52:42;20.40;99.90
3528;DHT22;1778;47.966;7.854;2023-08-24T01:53:44;20.40;99.90
3528;DHT22;1778;47.966;7.854;2023-08-24T01:54:47;20.40;99.90
3528;DHT22;1778;47.966;7.854;2023-08-24T01:55:49;20.40;99.90
3528;DHT22;1778;47.966;7.854;2023-08-24T01:56:51;20.40;99.90
3528;DHT22;1778;47.966;7.854;2023-08-24T01:57:55;20.40;99.90
3528;DHT22;1778;47.966;7.854;2023-08-24T01:58:57;20.40;99.90
3528;DHT22;1778;47.966;7.854;2023-08-24T01:59:59;20.40;99.90
3528;DHT22;1778;47.966;7.854;2023-08-24T02:01:00;20.40;99.90
3528;DHT22;1778;47.966;7.854;2023-08-24T02:02:02;20.40;99.90
3528;DHT22;1778;47.966;7.854;2023-08-24T02:03:04;20.40;99.90
3528;DHT22;1778;47.966;7.854;2023-08-24T02:04:06;20.50;99.90
3528;DHT22;1778;47.966;7.854;2023-08-24T02:05:08;20.40;99.90
3528;DHT22;1778;47.966;7.854;2023-08-24T02:06:11;20.50;99.90
3528;DHT22;1778;47.966;7.854;2023-08-24T02:07:13;20.50;99.90
3528;DHT22;1778;47.966;7.854;2023-08-24T02:08:15;20.50;99.90
3528;DHT22;1778;47.966;7.854;2023-08-24T02:09:16;20.50;99.90
3528;DHT22;1778;47.966;7.854;2023-08-24T02:10:18;20.50;99.90
3528;DHT22;1778;47.966;7.854;2023-08-24T02:11:19;20.50;99.90
3528;DHT22;1778;47.966;7.854;2023-08-24T02:12:22;20.50;99.90
3528;DHT22;1778;47.966;7.854;2023-08-24T02:13:23;20.50;99.90
3528;DHT22;1778;47.966;7.854;2023-08-24T02:14:25;20.50;99.90
3528;DHT22;1778;47.966;7.854;2023-08-24T02:15:26;20.50;99.90
3528;DHT22;1778;47.966;7.854;2023-08-24T02:16:29;20.50;99.90
3528;DHT22;1778;47.966;7.854;2023-08-24T02:17:31;20.50;99.90
3528;DHT22;1778;47.966;7.854;2023-08-24T02:18:33;20.50;99.90
3528;DHT22;1778;47.966;7.854;2023-08-24T02:19:35;20.50;99.90
3528;DHT22;1778;47.966;7.854;2023-08-24T02:20:37;20.50;99.90
3528;DHT22;1778;47.966;7.854;2023-08-24T02:21:39;20.50;99.90
3528;DHT22;1778;47.966;7.854;2023-08-24T02:22:40;20.50;99.90
3528;DHT22;1778;47.966;7.854;2023-08-24T02:23:42;20.50;99.90
3528;DHT22;1778;47.966;7.854;2023-08-24T02:24:44;20.50;99.90
3528;DHT22;1778;47.966;7.854;2023-08-24T02:25:45;20.50;99.90
3528;DHT22;1778;47.966;7.854;2023-08-24T02:26:47;20.60;99.90
3528;DHT22;1778;47.966;7.854;2023-08-24T02:27:48;20.50;99.90
3528;DHT22;1778;47.966;7.854;2023-08-24T02:28:50;20.50;99.90
3528;DHT22;1778;47.966;7.854;2023-08-24T02:29:53;20.60;99.90
3528;DHT22;1778;47.966;7.854;2023-08-24T02:30:54;20.60;99.90
3528;DHT22;1778;47.966;7.854;2023-08-24T02:31:56;20.60;99.90
3528;DHT22;1778;47.966;7.854;2023-08-24T02:32:57;20.60;99.90
3528;DHT22;1778;47.966;7.854;2023-08-24T02:33:59;20.60;99.90
3528;DHT22;1778;47.966;7.854;2023-08-24T02:35:02;20.60;99.90
3528;DHT22;1778;47.966;7.854;2023-08-24T02:36:04;20.60;99.90
3528;DHT22;1778;47.966;7.854;2023-08-24T02:37:06;20.60;99.90
3528;DHT22;1778;47.966;7.854;2023-08-24T02:38:08;20.60;99.90
3528;DHT22;1778;47.966;7.854;2023-08-24T02:39:09;20.60;99.90
3528;DHT22;1778;47.966;7.854;2023-08-24T02:40:11;20.60;99.90
3528;DHT22;1778;47.966;7.854;2023-08-24T02:41:13;20.60;99.90
3528;DHT22;1778;47.966;7.854;2023-08-24T02:42:15;20.60;99.90
3528;DHT22;1778;47.966;7.854;2023-08-24T02:43:17;20.60;99.90
3528;DHT22;1778;47.966;7.854;2023-08-24T02:44:18;20.60;99.90
3528;DHT22;1778;47.966;7.854;2023-08-24T02:45:20;20.60;99.90
3528;DHT22;1778;47.966;7.854;2023-08-24T02:46:21;20.60;99.90
3528;DHT22;1778;47.966;7.854;2023-08-24T02:47:23;20.60;99.90
3528;DHT22;1778;47.966;7.854;2023-08-24T02:48:25;20.70;99.90
3528;DHT22;1778;47.966;7.854;2023-08-24T02:49:26;20.80;99.90
3528;DHT22;1778;47.966;7.854;2023-08-24T02:50:28;20.70;99.90
3528;DHT22;1778;47.966;7.854;2023-08-24T02:51:29;20.60;99.90
3528;DHT22;1778;47.966;7.854;2023-08-24T02:52:32;20.60;99.90
3528;DHT22;1778;47.966;7.854;2023-08-24T02:53:34;20.60;99.90
3528;DHT22;1778;47.966;7.854;2023-08-24T02:54:35;20.70;99.90
3528;DHT22;1778;47.966;7.854;2023-08-24T02:55:37;20.80;99.90
3528;DHT22;1778;47.966;7.854;2023-08-24T02:56:39;20.80;99.90
3528;DHT22;1778;47.966;7.854;2023-08-24T02:57:41;20.70;99.90
3528;DHT22;1778;47.966;7.854;2023-08-24T02:58:42;20.70;99.90
3528;DHT22;1778;47.966;7.854;2023-08-24T02:59:44;20.70;99.90
3528;DHT22;1778;47.966;7.854;2023-08-24T03:00:46;20.70;99.90
3528;DHT22;1778;47.966;7.854;2023-08-24T03:01:48;20.70;99.90
3528;DHT22;1778;47.966;7.854;2023-08-24T03:02:50;20.70;99.90
3528;DHT22;1778;47.966;7.854;2023-08-24T03:03:52;20.60;99.90
3528;DHT22;1778;47.966;7.854;2023-08-24T03:04:54;20.70;99.90
3528;DHT22;1778;47.966;7.854;2023-08-24T03:06:01;20.70;99.90
3528;DHT22;1778;47.966;7.854;2023-08-24T03:07:02;20.70;99.90
3528;DHT22;1778;47.966;7.854;2023-08-24T03:08:04;20.70;99.90
3528;DHT22;1778;47.966;7.854;2023-08-24T03:09:06;20.60;99.90
3528;DHT22;1778;47.966;7.854;2023-08-24T03:10:08;20.60;99.90
3528;DHT22;1778;47.966;7.854;2023-08-24T03:11:10;20.60;99.90
3528;DHT22;1778;47.966;7.854;2023-08-24T03:12:11;20.60;99.90
3528;DHT22;1778;47.966;7.854;2023-08-24T03:13:14;20.60;99.90
3528;DHT22;1778;47.966;7.854;2023-08-24T03:14:16;20.60;99.90
3528;DHT22;1778;47.966;7.854;2023-08-24T03:15:17;20.60;99.90
3528;DHT22;1778;47.966;7.854;2023-08-24T03:16:19;20.50;99.90
3528;DHT22;1778;47.966;7.854;2023-08-24T03:17:22;20.50;99.90
3528;DHT22;1778;47.966;7.854;2023-08-24T03:18:24;20.40;99.90
3528;DHT22;1778;47.966;7.854;2023-08-24T03:19:26;20.40;99.90
3528;DHT22;1778;47.966;7.854;2023-08-24T03:20:27;20.40;99.90
3528;DHT22;1778;47.966;7.854;2023-08-24T03:21:30;20.40;99.90
3528;DHT22;1778;47.966;7.854;2023-08-24T03:22:32;20.40;99.90
3528;DHT22;1778;47.966;7.854;2023-08-24T03:23:33;20.30;99.90
3528;DHT22;1778;47.966;7.854;2023-08-24T03:24:35;20.30;99.90
3528;DHT22;1778;47.966;7.854;2023-08-24T03:25:38;20.40;99.90
3528;DHT22;1778;47.966;7.854;2023-08-24T03:26:39;20.30;99.90
3528;DHT22;1778;47.966;7.854;2023-08-24T03:27:42;20.30;99.90
3528;DHT22;1778;47.966;7.854;2023-08-24T03:28:43;20.30;99.90
3528;DHT22;1778;47.966;7.854;2023-08-24T03:29:45;20.20;99.90
3528;DHT22;1778;47.966;7.854;2023-08-24T03:30:51;20.30;99.90
3528;DHT22;1778;47.966;7.854;2023-08-24T03:31:53;20.20;99.90
3528;DHT22;1778;47.966;7.854;2023-08-24T03:32:55;20.20;99.90
3528;DHT22;1778;47.966;7.854;2023-08-24T03:33:57;20.30;99.90
3528;DHT22;1778;47.966;7.854;2023-08-24T03:34:59;20.20;99.90
3528;DHT22;1778;47.966;7.854;2023-08-24T03:36:01;20.20;99.90
3528;DHT22;1778;47.966;7.854;2023-08-24T03:37:04;20.20;99.90
3528;DHT22;1778;47.966;7.854;2023-08-24T03:38:06;20.20;99.90
3528;DHT22;1778;47.966;7.854;2023-08-24T03:39:08;20.20;99.90
3528;DHT22;1778;47.966;7.854;2023-08-24T03:40:12;20.10;99.90
3528;DHT22;1778;47.966;7.854;2023-08-24T03:41:13;20.10;99.90
3528;DHT22;1778;47.966;7.854;2023-08-24T03:42:15;20.10;99.90
3528;DHT22;1778;47.966;7.854;2023-08-24T03:43:17;20.10;99.90
3528;DHT22;1778;47.966;7.854;2023-08-24T03:44:19;20.10;99.90
3528;DHT22;1778;47.966;7.854;2023-08-24T03:45:21;20.20;99.90
3528;DHT22;1778;47.966;7.854;2023-08-24T03:46:23;20.10;99.90
3528;DHT22;1778;47.966;7.854;2023-08-24T03:47:25;20.10;99.90
3528;DHT22;1778;47.966;7.854;2023-08-24T03:48:27;20.10;99.90
3528;DHT22;1778;47.966;7.854;2023-08-24T03:49:28;20.10;99.90
3528;DHT22;1778;47.966;7.854;2023-08-24T03:50:30;20.10;99.90
3528;DHT22;1778;47.966;7.854;2023-08-24T03:51:32;20.00;99.90
3528;DHT22;1778;47.966;7.854;2023-08-24T03:52:34;20.00;99.90
3528;DHT22;1778;47.966;7.854;2023-08-24T03:53:35;20.00;99.90
3528;DHT22;1778;47.966;7.854;2023-08-24T03:54:41;20.10;99.90
3528;DHT22;1778;47.966;7.854;2023-08-24T03:55:47;20.10;99.90
3528;DHT22;1778;47.966;7.854;2023-08-24T03:56:51;20.10;99.90
3528;DHT22;1778;47.966;7.854;2023-08-24T03:57:54;20.10;99.90
3528;DHT22;1778;47.966;7.854;2023-08-24T03:58:59;20.10;99.90
3528;DHT22;1778;47.966;7.854;2023-08-24T04:00:02;20.10;99.90
3528;DHT22;1778;47.966;7.854;2023-08-24T04:01:14;20.10;99.90
3528;DHT22;1778;47.966;7.854;2023-08-24T04:02:16;20.10;99.90
3528;DHT22;1778;47.966;7.854;2023-08-24T04:03:17;20.10;99.90
3528;DHT22;1778;47.966;7.854;2023-08-24T04:04:19;20.20;99.90
3528;DHT22;1778;47.966;7.854;2023-08-24T04:05:21;20.10;99.90
3528;DHT22;1778;47.966;7.854;2023-08-24T04:06:23;20.10;99.90
3528;DHT22;1778;47.966;7.854;2023-08-24T04:07:25;20.20;99.90
3528;DHT22;1778;47.966;7.854;2023-08-24T04:08:26;20.20;99.90
3528;DHT22;1778;47.966;7.854;2023-08-24T04:09:28;20.20;99.90
3528;DHT22;1778;47.966;7.854;2023-08-24T04:10:30;20.20;99.90
3528;DHT22;1778;47.966;7.854;2023-08-24T04:11:33;20.30;99.90
3528;DHT22;1778;47.966;7.854;2023-08-24T04:12:34;20.30;99.90
3528;DHT22;1778;47.966;7.854;2023-08-24T04:13:36;20.30;99.90
3528;DHT22;1778;47.966;7.854;2023-08-24T04:14:38;20.20;99.90
3528;DHT22;1778;47.966;7.854;2023-08-24T04:15:39;20.30;99.90
3528;DHT22;1778;47.966;7.854;2023-08-24T04:16:41;20.30;99.90
3528;DHT22;1778;47.966;7.854;2023-08-24T04:17:43;20.30;99.90
3528;DHT22;1778;47.966;7.854;2023-08-24T04:18:45;20.30;99.90
3528;DHT22;1778;47.966;7.854;2023-08-24T04:19:46;20.30;99.90
3528;DHT22;1778;47.966;7.854;2023-08-24T04:20:49;20.30;99.90
3528;DHT22;1778;47.966;7.854;2023-08-24T04:21:52;20.30;99.90
3528;DHT22;1778;47.966;7.854;2023-08-24T04:22:54;20.30;99.90
3528;DHT22;1778;47.966;7.854;2023-08-24T04:23:57;20.20;99.90
3528;DHT22;1778;47.966;7.854;2023-08-24T04:24:59;20.20;99.90
3528;DHT22;1778;47.966;7.854;2023-08-24T04:26:01;20.20;99.90
3528;DHT22;1778;47.966;7.854;2023-08-24T04:27:04;20.20;99.90
3528;DHT22;1778;47.966;7.854;2023-08-24T04:28:05;20.20;99.90
3528;DHT22;1778;47.966;7.854;2023-08-24T04:29:07;20.20;99.90
3528;DHT22;1778;47.966;7.854;2023-08-24T04:30:09;20.10;99.90
3528;DHT22;1778;47.966;7.854;2023-08-24T04:31:13;20.10;99.90
3528;DHT22;1778;47.966;7.854;2023-08-24T04:32:15;20.20;99.90
3528;DHT22;1778;47.966;7.854;2023-08-24T04:33:17;20.20;99.90
3528;DHT22;1778;47.966;7.854;2023-08-24T04:34:18;20.10;99.90
3528;DHT22;1778;47.966;7.854;2023-08-24T04:35:20;20.10;99.90
3528;DHT22;1778;47.966;7.854;2023-08-24T04:36:21;20.10;99.90
3528;DHT22;1778;47.966;7.854;2023-08-24T04:37:23;20.10;99.90
3528;DHT22;1778;47.966;7.854;2023-08-24T04:38:25;20.10;99.90
3528;DHT22;1778;47.966;7.854;2023-08-24T04:39:26;20.20;99.90
3528;DHT22;1778;47.966;7.854;2023-08-24T04:40:28;20.10;99.90
3528;DHT22;1778;47.966;7.854;2023-08-24T04:41:29;20.10;99.90
3528;DHT22;1778;47.966;7.854;2023-08-24T04:42:31;20.10;99.90
3528;DHT22;1778;47.966;7.854;2023-08-24T04:43:33;20.10;99.90
3528;DHT22;1778;47.966;7.854;2023-08-24T04:44:35;20.10;99.90
3528;DHT22;1778;47.966;7.854;2023-08-24T04:45:37;20.10;99.90
3528;DHT22;1778;47.966;7.854;2023-08-24T04:46:38;20.10;99.90
3528;DHT22;1778;47.966;7.854;2023-08-24T04:47:40;20.20;99.90
3528;DHT22;1778;47.966;7.854;2023-08-24T04:48:42;20.20;99.90
3528;DHT22;1778;47.966;7.854;2023-08-24T04:49:44;20.20;99.90
3528;DHT22;1778;47.966;7.854;2023-08-24T04:50:45;20.30;99.90
3528;DHT22;1778;47.966;7.854;2023-08-24T04:51:48;20.30;99.90
3528;DHT22;1778;47.966;7.854;2023-08-24T04:52:49;20.30;99.90
3528;DHT22;1778;47.966;7.854;2023-08-24T04:53:50;20.30;99.90
3528;DHT22;1778;47.966;7.854;2023-08-24T04:54:52;20.30;99.90
3528;DHT22;1778;47.966;7.854;2023-08-24T04:55:54;20.30;99.90
3528;DHT22;1778;47.966;7.854;2023-08-24T04:56:56;20.30;99.90
3528;DHT22;1778;47.966;7.854;2023-08-24T04:57:57;20.30;99.90
3528;DHT22;1778;47.966;7.854;2023-08-24T04:58:59;20.30;99.90
3528;DHT22;1778;47.966;7.854;2023-08-24T05:00:02;20.30;99.90
3528;DHT22;1778;47.966;7.854;2023-08-24T05:01:06;20.30;99.90
3528;DHT22;1778;47.966;7.854;2023-08-24T05:02:08;20.30;99.90
3528;DHT22;1778;47.966;7.854;2023-08-24T05:03:10;20.30;99.90
3528;DHT22;1778;47.966;7.854;2023-08-24T05:04:12;20.30;99.90
3528;DHT22;1778;47.966;7.854;2023-08-24T05:05:13;20.30;99.90
3528;DHT22;1778;47.966;7.854;2023-08-24T05:06:15;20.40;99.90
3528;DHT22;1778;47.966;7.854;2023-08-24T05:07:17;20.40;99.90
3528;DHT22;1778;47.966;7.854;2023-08-24T05:08:18;20.40;99.90
3528;DHT22;1778;47.966;7.854;2023-08-24T05:09:20;20.40;99.90
3528;DHT22;1778;47.966;7.854;2023-08-24T05:10:22;20.40;99.90
3528;DHT22;1778;47.966;7.854;2023-08-24T05:11:26;20.40;99.90
3528;DHT22;1778;47.966;7.854;2023-08-24T05:12:27;20.40;99.90
3528;DHT22;1778;47.966;7.854;2023-08-24T05:13:30;20.40;99.90
3528;DHT22;1778;47.966;7.854;2023-08-24T05:14:32;20.50;99.90
3528;DHT22;1778;47.966;7.854;2023-08-24T05:15:34;20.50;99.90
3528;DHT22;1778;47.966;7.854;2023-08-24T05:16:35;20.60;99.90
3528;DHT22;1778;47.966;7.854;2023-08-24T05:17:37;20.60;99.90
3528;DHT22;1778;47.966;7.854;2023-08-24T05:18:39;20.60;99.90
3528;DHT22;1778;47.966;7.854;2023-08-24T05:19:41;20.60;99.90
3528;DHT22;1778;47.966;7.854;2023-08-24T05:20:42;20.60;99.90
3528;DHT22;1778;47.966;7.854;2023-08-24T05:21:44;20.60;99.90
3528;DHT22;1778;47.966;7.854;2023-08-24T05:22:46;20.60;99.90
3528;DHT22;1778;47.966;7.854;2023-08-24T05:23:47;20.60;99.90
3528;DHT22;1778;47.966;7.854;2023-08-24T05:24:49;20.60;99.90
3528;DHT22;1778;47.966;7.854;2023-08-24T05:25:50;20.60;99.90
3528;DHT22;1778;47.966;7.854;2023-08-24T05:26:52;20.70;99.90
3528;DHT22;1778;47.966;7.854;2023-08-24T05:27:54;20.70;99.90
3528;DHT22;1778;47.966;7.854;2023-08-24T05:28:55;20.70;99.90
3528;DHT22;1778;47.966;7.854;2023-08-24T05:29:58;20.70;99.90
3528;DHT22;1778;47.966;7.854;2023-08-24T05:30:59;20.70;99.90
3528;DHT22;1778;47.966;7.854;2023-08-24T05:32:02;20.80;99.90
3528;DHT22;1778;47.966;7.854;2023-08-24T05:33:04;20.80;99.90
3528;DHT22;1778;47.966;7.854;2023-08-24T05:34:06;20.80;99.90
3528;DHT22;1778;47.966;7.854;2023-08-24T05:35:08;20.80;99.90
3528;DHT22;1778;47.966;7.854;2023-08-24T05:36:10;20.90;99.90
3528;DHT22;1778;47.966;7.854;2023-08-24T05:37:11;20.90;99.90
3528;DHT22;1778;47.966;7.854;2023-08-24T05:38:14;20.90;99.90
3528;DHT22;1778;47.966;7.854;2023-08-24T05:39:16;20.90;99.90
3528;DHT22;1778;47.966;7.854;2023-08-24T05:40:17;20.90;99.90
3528;DHT22;1778;47.966;7.854;2023-08-24T05:41:19;20.90;99.90
3528;DHT22;1778;47.966;7.854;2023-08-24T05:42:20;20.90;99.90
3528;DHT22;1778;47.966;7.854;2023-08-24T05:43:22;21.00;99.90
3528;DHT22;1778;47.966;7.854;2023-08-24T05:44:23;21.00;99.90
3528;DHT22;1778;47.966;7.854;2023-08-24T05:45:25;21.00;99.90
3528;DHT22;1778;47.966;7.854;2023-08-24T05:46:27;21.10;99.90
3528;DHT22;1778;47.966;7.854;2023-08-24T05:47:29;21.10;99.90
3528;DHT22;1778;47.966;7.854;2023-08-24T05:48:31;21.10;99.90
3528;DHT22;1778;47.966;7.854;2023-08-24T05:49:32;21.10;99.90
3528;DHT22;1778;47.966;7.854;2023-08-24T05:50:34;21.10;99.90
3528;DHT22;1778;47.966;7.854;2023-08-24T05:51:36;21.10;99.90
3528;DHT22;1778;47.966;7.854;2023-08-24T05:52:38;21.20;99.90
3528;DHT22;1778;47.966;7.854;2023-08-24T05:53:39;21.20;99.90
3528;DHT22;1778;47.966;7.854;2023-08-24T05:54:42;21.20;99.90
3528;DHT22;1778;47.966;7.854;2023-08-24T05:55:43;21.20;99.90
3528;DHT22;1778;47.966;7.854;2023-08-24T05:56:46;21.10;99.90
3528;DHT22;1778;47.966;7.854;2023-08-24T05:57:48;21.00;99.90
3528;DHT22;1778;47.966;7.854;2023-08-24T05:58:51;21.10;99.90
3528;DHT22;1778;47.966;7.854;2023-08-24T05:59:53;21.10;99.90
3528;DHT22;1778;47.966;7.854;2023-08-24T06:00:58;21.10;99.90
3528;DHT22;1778;47.966;7.854;2023-08-24T06:02:00;21.20;99.90
3528;DHT22;1778;47.966;7.854;2023-08-24T06:03:01;21.20;99.90
3528;DHT22;1778;47.966;7.854;2023-08-24T06:04:05;21.30;99.90
3528;DHT22;1778;47.966;7.854;2023-08-24T06:05:07;21.20;99.90
3528;DHT22;1778;47.966;7.854;2023-08-24T06:06:09;21.30;99.90
3528;DHT22;1778;47.966;7.854;2023-08-24T06:07:11;21.40;99.90
3528;DHT22;1778;47.966;7.854;2023-08-24T06:08:12;21.40;99.90
3528;DHT22;1778;47.966;7.854;2023-08-24T06:09:14;21.50;99.90
3528;DHT22;1778;47.966;7.854;2023-08-24T06:10:19;21.50;99.90
3528;DHT22;1778;47.966;7.854;2023-08-24T06:11:20;21.50;99.90
3528;DHT22;1778;47.966;7.854;2023-08-24T06:12:22;21.60;99.90
3528;DHT22;1778;47.966;7.854;2023-08-24T06:13:24;21.60;99.90
3528;DHT22;1778;47.966;7.854;2023-08-24T06:14:25;21.60;99.90
3528;DHT22;1778;47.966;7.854;2023-08-24T06:15:27;21.60;99.90
3528;DHT22;1778;47.966;7.854;2023-08-24T06:16:29;21.60;99.90
3528;DHT22;1778;47.966;7.854;2023-08-24T06:17:31;21.70;99.90
3528;DHT22;1778;47.966;7.854;2023-08-24T06:18:33;21.70;99.90
3528;DHT22;1778;47.966;7.854;2023-08-24T06:19:34;21.70;99.90
3528;DHT22;1778;47.966;7.854;2023-08-24T06:20:36;21.80;99.90
3528;DHT22;1778;47.966;7.854;2023-08-24T06:21:40;21.80;99.90
3528;DHT22;1778;47.966;7.854;2023-08-24T06:22:41;21.80;99.90
3528;DHT22;1778;47.966;7.854;2023-08-24T06:23:43;21.80;99.90
3528;DHT22;1778;47.966;7.854;2023-08-24T06:24:45;21.80;99.90
3528;DHT22;1778;47.966;7.854;2023-08-24T06:25:49;21.80;99.90
3528;DHT22;1778;47.966;7.854;2023-08-24T06:26:51;21.80;99.90
3528;DHT22;1778;47.966;7.854;2023-08-24T06:27:52;21.80;99.90
3528;DHT22;1778;47.966;7.854;2023-08-24T06:28:54;22.00;99.90
3528;DHT22;1778;47.966;7.854;2023-08-24T06:29:57;22.00;99.90
3528;DHT22;1778;47.966;7.854;2023-08-24T06:31:00;21.90;99.90
3528;DHT22;1778;47.966;7.854;2023-08-24T06:32:01;21.90;99.90
3528;DHT22;1778;47.966;7.854;2023-08-24T06:33:04;21.90;99.90
3528;DHT22;1778;47.966;7.854;2023-08-24T06:34:06;21.90;99.90
3528;DHT22;1778;47.966;7.854;2023-08-24T06:35:08;21.90;99.90
3528;DHT22;1778;47.966;7.854;2023-08-24T06:36:09;21.90;99.90
3528;DHT22;1778;47.966;7.854;2023-08-24T06:37:11;22.00;99.90
3528;DHT22;1778;47.966;7.854;2023-08-24T06:38:13;22.00;99.90
3528;DHT22;1778;47.966;7.854;2023-08-24T06:39:15;22.10;99.90
3528;DHT22;1778;47.966;7.854;2023-08-24T06:40:16;22.00;99.90
3528;DHT22;1778;47.966;7.854;2023-08-24T06:41:20;22.00;99.90
3528;DHT22;1778;47.966;7.854;2023-08-24T06:42:21;22.00;99.90
3528;DHT22;1778;47.966;7.854;2023-08-24T06:43:23;22.00;99.90
3528;DHT22;1778;47.966;7.854;2023-08-24T06:44:24;22.00;99.90
3528;DHT22;1778;47.966;7.854;2023-08-24T06:45:26;22.00;99.90
3528;DHT22;1778;47.966;7.854;2023-08-24T06:46:29;22.00;99.90
3528;DHT22;1778;47.966;7.854;2023-08-24T06:47:31;21.90;99.90
3528;DHT22;1778;47.966;7.854;2023-08-24T06:48:36;21.80;99.90
3528;DHT22;1778;47.966;7.854;2023-08-24T06:49:38;21.80;99.90
3528;DHT22;1778;47.966;7.854;2023-08-24T06:50:40;21.90;99.90